createdAt,value
2019-03-16T00:01:26.320Z,9.54
2019-03-16T00:03:56.807Z,9.56
2019-03-16T00:06:27.306Z,9.58
2019-03-16T00:08:57.800Z,9.59
2019-03-16T00:11:28.380Z,9.61
2019-03-16T00:13:58.975Z,9.63
2019-03-16T00:16:29.878Z,9.62
2019-03-16T00:19:00.671Z,9.61
2019-03-16T00:21:31.451Z,9.57
2019-03-16T00:24:01.977Z,9.60
2019-03-16T00:26:32.441Z,9.63
2019-03-16T00:29:02.909Z,9.65
2019-03-16T00:31:33.757Z,9.63
2019-03-16T00:34:04.217Z,9.66
2019-03-16T00:36:34.676Z,9.66
2019-03-16T00:39:07.209Z,9.66
2019-03-16T00:41:37.683Z,9.64
2019-03-16T00:44:08.177Z,9.63
2019-03-16T00:46:38.648Z,9.59
2019-03-16T00:49:09.477Z,9.47
2019-03-16T00:51:40.093Z,9.34
2019-03-16T00:54:10.751Z,9.28
2019-03-16T00:56:41.232Z,9.18
2019-03-16T00:59:11.715Z,9.12
2019-03-16T01:01:42.553Z,9.14
2019-03-16T01:04:13.017Z,9.16
2019-03-16T01:06:43.485Z,9.08
2019-03-16T01:09:14.003Z,9.01
2019-03-16T01:11:44.757Z,8.99
2019-03-16T01:14:15.642Z,8.96
2019-03-16T01:16:46.199Z,8.93
2019-03-16T01:19:16.709Z,8.93
2019-03-16T01:21:47.184Z,8.90
2019-03-16T01:24:17.729Z,8.86
2019-03-16T01:26:48.265Z,8.82
2019-03-16T01:29:19.187Z,8.83
2019-03-16T01:31:49.873Z,8.83
2019-03-16T01:34:20.958Z,8.77
2019-03-16T01:36:51.472Z,8.78
2019-03-16T01:39:22.086Z,8.77
2019-03-16T01:41:52.564Z,8.75
2019-03-16T01:44:23.046Z,8.74
2019-03-16T01:46:53.655Z,8.73
2019-03-16T01:49:24.214Z,8.71
2019-03-16T01:51:54.732Z,8.77
2019-03-16T01:54:25.307Z,8.74
2019-03-16T01:56:55.945Z,8.64
2019-03-16T01:59:26.423Z,8.64
2019-03-16T02:01:56.927Z,8.64
2019-03-16T02:04:27.407Z,8.60
2019-03-16T02:06:57.926Z,8.61
2019-03-16T02:09:28.848Z,8.60
2019-03-16T02:12:00.604Z,8.66
2019-03-16T02:14:31.501Z,8.66
2019-03-16T02:17:02.089Z,8.59
2019-03-16T02:19:35.816Z,8.60
2019-03-16T02:22:05.048Z,8.54
2019-03-16T02:24:35.799Z,8.55
2019-03-16T02:27:06.513Z,8.49
2019-03-16T02:29:37.272Z,8.49
2019-03-16T02:32:07.807Z,8.47
2019-03-16T02:34:38.387Z,8.47
2019-03-16T02:37:08.848Z,8.45
2019-03-16T02:39:39.437Z,8.45
2019-03-16T02:42:10.183Z,8.35
2019-03-16T02:44:40.710Z,8.33
2019-03-16T02:47:11.493Z,8.34
2019-03-16T02:49:42.096Z,8.30
2019-03-16T02:52:12.597Z,8.31
2019-03-16T02:54:43.398Z,8.37
2019-03-16T02:57:13.914Z,8.32
2019-03-16T02:59:44.399Z,8.32
2019-03-16T03:02:15.004Z,8.30
2019-03-16T03:04:46.595Z,8.30
2019-03-16T03:07:17.345Z,8.27
2019-03-16T03:09:48.126Z,8.27
2019-03-16T03:12:18.623Z,8.25
2019-03-16T03:14:49.437Z,8.27
2019-03-16T03:17:20.057Z,8.29
2019-03-16T03:19:50.833Z,8.26
2019-03-16T03:22:21.293Z,8.23
2019-03-16T03:24:51.762Z,8.22
2019-03-16T03:27:22.251Z,8.22
2019-03-16T03:29:57.162Z,8.24
2019-03-16T03:32:25.607Z,8.19
2019-03-16T03:34:56.091Z,8.16
2019-03-16T03:37:26.568Z,8.17
2019-03-16T03:39:57.331Z,8.21
2019-03-16T03:42:28.139Z,8.17
2019-03-16T03:44:58.704Z,8.17
2019-03-16T03:47:29.266Z,8.17
2019-03-16T03:49:59.670Z,8.16
2019-03-16T03:52:30.151Z,8.13
2019-03-16T03:55:00.696Z,8.15
2019-03-16T03:57:31.447Z,8.16
2019-03-16T04:00:02.495Z,8.19
2019-03-16T04:02:33.015Z,8.20
2019-03-16T04:05:03.779Z,8.20
2019-03-16T04:07:34.278Z,8.19
2019-03-16T04:10:05.234Z,8.16
2019-03-16T04:12:36.357Z,8.19
2019-03-16T04:15:07.621Z,8.19
2019-03-16T04:17:38.176Z,8.19
2019-03-16T04:20:09.725Z,8.21
2019-03-16T04:22:40.196Z,8.22
2019-03-16T04:25:11.054Z,8.21
2019-03-16T04:27:41.507Z,8.19
2019-03-16T04:30:12.222Z,8.23
2019-03-16T04:32:42.734Z,8.21
2019-03-16T04:35:13.246Z,8.22
2019-03-16T04:37:43.790Z,8.24
2019-03-16T04:40:14.287Z,8.23
2019-03-16T04:42:44.778Z,8.22
2019-03-16T04:45:15.287Z,8.23
2019-03-16T04:47:45.881Z,8.22
2019-03-16T04:50:16.372Z,8.25
2019-03-16T04:52:46.994Z,8.19
2019-03-16T04:55:18.116Z,8.22
2019-03-16T04:57:48.603Z,8.25
2019-03-16T05:00:19.511Z,8.25
2019-03-16T05:02:50.323Z,8.24
2019-03-16T05:05:21.076Z,8.24
2019-03-16T05:07:51.539Z,8.27
2019-03-16T05:10:22.240Z,8.29
2019-03-16T05:12:52.970Z,8.29
2019-03-16T05:15:23.714Z,8.28
2019-03-16T05:17:54.251Z,8.32
2019-03-16T05:20:25.068Z,8.28
2019-03-16T05:22:55.570Z,8.25
2019-03-16T05:25:26.112Z,8.25
2019-03-16T05:27:56.501Z,8.23
2019-03-16T05:30:27.249Z,8.24
2019-03-16T05:32:57.779Z,8.22
2019-03-16T05:35:28.218Z,8.22
2019-03-16T05:37:58.698Z,8.17
2019-03-16T05:40:29.385Z,8.18
2019-03-16T05:43:00.509Z,8.12
2019-03-16T05:45:31.324Z,8.14
2019-03-16T05:48:02.208Z,8.10
2019-03-16T05:50:32.982Z,8.13
2019-03-16T05:53:03.462Z,8.13
2019-03-16T05:55:34.144Z,8.10
2019-03-16T05:58:04.600Z,8.09
2019-03-16T06:00:35.059Z,8.12
2019-03-16T06:03:06.289Z,8.09
2019-03-16T06:05:36.739Z,8.09
2019-03-16T06:08:07.220Z,8.09
2019-03-16T06:10:38.237Z,8.06
2019-03-16T06:13:08.711Z,8.04
2019-03-16T06:15:39.269Z,8.02
2019-03-16T06:18:12.968Z,8.03
2019-03-16T06:20:42.154Z,8.05
2019-03-16T06:23:12.659Z,8.01
2019-03-16T06:25:43.113Z,7.99
2019-03-16T06:28:13.846Z,8.03
2019-03-16T06:30:44.326Z,7.98
2019-03-16T06:33:14.874Z,7.97
2019-03-16T06:35:45.640Z,7.99
2019-03-16T06:38:16.543Z,7.96
2019-03-16T06:40:47.035Z,8.01
2019-03-16T06:43:17.489Z,8.03
2019-03-16T06:45:47.984Z,8.07
2019-03-16T06:48:18.444Z,8.13
2019-03-16T06:50:48.982Z,8.13
2019-03-16T06:53:19.716Z,8.12
2019-03-16T06:55:50.769Z,8.15
2019-03-16T06:58:21.585Z,8.16
2019-03-16T07:00:52.081Z,8.15
2019-03-16T07:03:22.592Z,8.24
2019-03-16T07:05:53.375Z,8.19
2019-03-16T07:08:23.837Z,8.23
2019-03-16T07:10:55.025Z,8.27
2019-03-16T07:13:25.473Z,8.33
2019-03-16T07:15:56.010Z,8.38
2019-03-16T07:18:26.579Z,8.49
2019-03-16T07:20:57.410Z,8.63
2019-03-16T07:23:28.054Z,8.73
2019-03-16T07:25:58.790Z,8.87
2019-03-16T07:28:29.244Z,8.91
2019-03-16T07:30:59.745Z,9.00
2019-03-16T07:33:30.284Z,9.14
2019-03-16T07:36:00.783Z,9.26
2019-03-16T07:38:31.300Z,9.46
2019-03-16T07:41:01.780Z,9.65
2019-03-16T07:43:32.618Z,9.83
2019-03-16T07:46:03.093Z,10.03
2019-03-16T07:48:33.805Z,10.13
2019-03-16T07:51:04.498Z,10.24
2019-03-16T07:53:35.253Z,10.32
2019-03-16T07:56:05.722Z,10.36
2019-03-16T07:58:36.214Z,10.40
2019-03-16T08:01:06.801Z,10.44
2019-03-16T08:03:37.663Z,10.50
2019-03-16T08:06:08.144Z,10.54
2019-03-16T08:08:38.908Z,10.61
2019-03-16T08:11:09.423Z,10.63
2019-03-16T08:13:40.001Z,10.65
2019-03-16T08:16:10.458Z,10.69
2019-03-16T08:18:41.103Z,10.67
2019-03-16T08:21:11.632Z,10.69
2019-03-16T08:23:42.371Z,10.72
2019-03-16T08:26:12.936Z,10.71
2019-03-16T08:28:43.661Z,10.75
2019-03-16T08:31:14.939Z,10.73
2019-03-16T08:33:45.612Z,10.71
2019-03-16T08:36:16.139Z,10.69
2019-03-16T08:38:46.588Z,10.67
2019-03-16T08:41:17.091Z,10.63
2019-03-16T08:43:47.966Z,10.58
2019-03-16T08:46:18.532Z,10.59
2019-03-16T08:48:50.128Z,10.62
2019-03-16T08:51:20.625Z,10.72
2019-03-16T08:53:51.286Z,10.74
2019-03-16T08:56:22.996Z,10.76
2019-03-16T08:58:53.613Z,10.79
2019-03-16T09:01:24.137Z,10.76
2019-03-16T09:03:57.307Z,10.75
2019-03-16T09:06:27.777Z,10.74
2019-03-16T09:08:58.519Z,10.69
2019-03-16T09:11:29.374Z,10.69
2019-03-16T09:13:59.852Z,10.73
2019-03-16T09:16:30.327Z,10.72
2019-03-16T09:19:00.837Z,10.76
2019-03-16T09:21:31.597Z,10.79
2019-03-16T09:24:02.363Z,10.80
2019-03-16T09:26:32.885Z,10.82
2019-03-16T09:29:14.343Z,10.86
2019-03-16T09:31:35.911Z,10.81
2019-03-16T09:34:06.435Z,10.83
2019-03-16T09:36:37.066Z,10.82
2019-03-16T09:39:09.328Z,10.84
2019-03-16T09:41:40.015Z,10.88
2019-03-16T09:44:10.504Z,10.86
2019-03-16T09:46:40.954Z,10.93
2019-03-16T09:49:11.504Z,11.02
2019-03-16T09:51:42.329Z,11.17
2019-03-16T09:54:12.826Z,11.33
2019-03-16T09:56:43.348Z,11.43
2019-03-16T09:59:14.302Z,11.53
2019-03-16T10:01:44.807Z,11.56
2019-03-16T10:04:15.628Z,11.66
2019-03-16T10:06:46.366Z,11.64
2019-03-16T10:09:16.833Z,11.62
2019-03-16T10:11:47.331Z,11.68
2019-03-16T10:14:18.165Z,11.75
2019-03-16T10:16:48.987Z,11.83
2019-03-16T10:19:19.566Z,11.87
2019-03-16T10:21:50.265Z,11.88
2019-03-16T10:24:21.035Z,11.90
2019-03-16T10:26:51.989Z,11.89
2019-03-16T10:29:22.440Z,11.96
2019-03-16T10:31:53.250Z,11.97
2019-03-16T10:34:24.135Z,11.96
2019-03-16T10:36:54.732Z,11.89
2019-03-16T10:39:25.207Z,11.99
2019-03-16T10:41:55.718Z,11.93
2019-03-16T10:44:26.201Z,11.89
2019-03-16T10:46:56.755Z,11.87
2019-03-16T10:49:27.569Z,11.79
2019-03-16T10:51:58.118Z,11.77
2019-03-16T10:54:28.724Z,11.79
2019-03-16T10:56:59.544Z,11.79
2019-03-16T10:59:30.416Z,11.76
2019-03-16T11:02:00.964Z,11.76
2019-03-16T11:04:31.507Z,11.80
2019-03-16T11:07:02.254Z,11.88
2019-03-16T11:09:32.716Z,11.99
2019-03-16T11:12:03.502Z,12.01
2019-03-16T11:14:34.022Z,11.99
2019-03-16T11:17:04.742Z,12.03
2019-03-16T11:19:35.297Z,12.01
2019-03-16T11:22:06.344Z,11.99
2019-03-16T11:24:37.065Z,11.98
2019-03-16T11:27:07.654Z,11.96
2019-03-16T11:29:38.410Z,11.94
2019-03-16T11:32:09.068Z,11.90
2019-03-16T11:34:39.618Z,11.85
2019-03-16T11:37:10.171Z,11.82
2019-03-16T11:39:41.029Z,11.81
2019-03-16T11:42:11.801Z,11.85
2019-03-16T11:44:42.300Z,11.80
2019-03-16T11:47:12.787Z,11.82
2019-03-16T11:49:43.568Z,11.81
2019-03-16T11:52:14.387Z,11.76
2019-03-16T11:54:44.965Z,11.74
2019-03-16T11:57:15.525Z,11.73
2019-03-16T11:59:46.458Z,11.79
2019-03-16T12:02:17.040Z,11.81
2019-03-16T12:04:47.654Z,11.80
2019-03-16T12:07:18.292Z,11.75
2019-03-16T12:09:48.803Z,11.80
2019-03-16T12:12:19.710Z,11.80
2019-03-16T12:14:50.668Z,11.75
2019-03-16T12:17:21.470Z,11.73
2019-03-16T12:19:52.032Z,11.67
2019-03-16T12:22:22.798Z,11.68
2019-03-16T12:24:53.497Z,11.67
2019-03-16T12:27:24.184Z,11.64
2019-03-16T12:29:54.710Z,11.59
2019-03-16T12:32:25.831Z,11.62
2019-03-16T12:34:56.305Z,11.59
2019-03-16T12:37:27.061Z,11.59
2019-03-16T12:39:57.601Z,11.62
2019-03-16T12:42:28.141Z,11.58
2019-03-16T12:44:58.737Z,11.59
2019-03-16T12:47:31.210Z,11.64
2019-03-16T12:50:01.442Z,11.66
2019-03-16T12:52:32.165Z,11.62
2019-03-16T12:55:02.622Z,11.62
2019-03-16T12:57:33.380Z,11.67
2019-03-16T13:00:03.838Z,11.65
2019-03-16T13:02:34.559Z,11.70
2019-03-16T13:05:05.418Z,11.69
2019-03-16T13:07:35.987Z,11.70
2019-03-16T13:10:07.888Z,11.65
2019-03-16T13:12:39.209Z,11.68
2019-03-16T13:15:10.172Z,11.70
2019-03-16T13:17:40.896Z,11.75
2019-03-16T13:20:11.900Z,11.79
2019-03-16T13:22:42.411Z,11.77
2019-03-16T13:25:13.143Z,11.77
2019-03-16T13:27:43.680Z,11.85
2019-03-16T13:30:14.913Z,11.85
2019-03-16T13:32:45.436Z,11.81
2019-03-16T13:35:16.286Z,11.84
2019-03-16T13:37:46.884Z,11.87
2019-03-16T13:40:17.643Z,11.84
2019-03-16T13:42:48.217Z,11.89
2019-03-16T13:45:18.838Z,11.92
2019-03-16T13:47:51.778Z,11.91
2019-03-16T13:50:21.777Z,11.88
2019-03-16T13:52:52.901Z,11.82
2019-03-16T13:55:23.686Z,11.87
2019-03-16T13:57:54.110Z,11.84
2019-03-16T14:00:25.112Z,11.80
2019-03-16T14:02:55.593Z,11.75
2019-03-16T14:05:26.475Z,11.78
2019-03-16T14:07:56.893Z,11.76
2019-03-16T14:10:27.807Z,11.77
2019-03-16T14:12:58.563Z,11.81
2019-03-16T14:15:29.320Z,11.84
2019-03-16T14:17:59.787Z,11.90
2019-03-16T14:20:30.382Z,11.87
2019-03-16T14:23:01.785Z,11.89
2019-03-16T14:25:32.286Z,11.91
2019-03-16T14:28:02.887Z,11.91
2019-03-16T14:30:40.967Z,11.94
2019-03-16T14:33:05.634Z,11.97
2019-03-16T14:35:36.486Z,11.99
2019-03-16T14:38:07.251Z,12.00
2019-03-16T14:40:38.025Z,11.95
2019-03-16T14:43:11.325Z,11.94
2019-03-16T14:45:41.169Z,11.92
2019-03-16T14:48:11.652Z,11.94
2019-03-16T14:50:42.254Z,11.99
2019-03-16T14:53:12.708Z,11.96
2019-03-16T14:55:43.181Z,11.99
2019-03-16T14:58:13.730Z,11.99
2019-03-16T15:00:45.101Z,11.97
2019-03-16T15:03:15.580Z,11.93
2019-03-16T15:05:46.204Z,11.90
2019-03-16T15:08:16.889Z,11.92
2019-03-16T15:10:47.639Z,11.88
2019-03-16T15:13:18.200Z,11.91
2019-03-16T15:15:48.921Z,11.92
2019-03-16T15:18:19.408Z,11.99
2019-03-16T15:20:50.190Z,12.02
2019-03-16T15:23:20.657Z,12.06
2019-03-16T15:25:51.077Z,12.06
2019-03-16T15:28:21.885Z,12.10
2019-03-16T15:30:52.641Z,12.16
2019-03-16T15:33:23.112Z,12.16
2019-03-16T15:35:53.719Z,12.13
2019-03-16T15:38:24.528Z,12.15
2019-03-16T15:40:55.335Z,12.13
2019-03-16T15:43:25.896Z,12.16
2019-03-16T15:45:57.066Z,12.19
2019-03-16T15:48:27.724Z,12.14
2019-03-16T15:50:58.533Z,12.04
2019-03-16T15:53:29.024Z,12.08
2019-03-16T15:55:59.665Z,12.07
2019-03-16T15:58:30.232Z,12.14
2019-03-16T16:01:03.823Z,12.14
2019-03-16T16:03:33.001Z,12.15
2019-03-16T16:06:03.459Z,12.14
2019-03-16T16:08:34.243Z,12.09
2019-03-16T16:11:04.855Z,12.03
2019-03-16T16:13:35.375Z,12.02
2019-03-16T16:16:05.826Z,12.00
2019-03-16T16:18:36.613Z,11.96
2019-03-16T16:21:07.142Z,11.92
2019-03-16T16:23:37.704Z,11.90
2019-03-16T16:26:08.487Z,11.92
2019-03-16T16:28:38.975Z,11.90
2019-03-16T16:31:16.256Z,11.88
2019-03-16T16:33:42.232Z,11.87
2019-03-16T16:36:12.846Z,11.90
2019-03-16T16:38:44.677Z,11.88
2019-03-16T16:41:15.184Z,11.88
2019-03-16T16:43:45.699Z,11.85
2019-03-16T16:46:16.216Z,11.88
2019-03-16T16:48:46.866Z,11.88
2019-03-16T16:51:17.463Z,11.86
2019-03-16T16:53:48.069Z,11.88
2019-03-16T16:56:19.093Z,11.83
2019-03-16T16:58:49.493Z,11.84
2019-03-16T17:01:29.272Z,11.82
2019-03-16T17:03:52.322Z,11.82
2019-03-16T17:06:22.992Z,11.81
2019-03-16T17:08:53.568Z,11.79
2019-03-16T17:11:26.254Z,11.85
2019-03-16T17:13:56.476Z,11.83
2019-03-16T17:16:26.952Z,11.83
2019-03-16T17:18:57.751Z,11.86
2019-03-16T17:21:28.189Z,11.85
2019-03-16T17:23:59.058Z,11.86
2019-03-16T17:26:29.606Z,11.83
2019-03-16T17:29:00.062Z,11.81
2019-03-16T17:31:41.739Z,11.81
2019-03-16T17:34:02.777Z,11.79
2019-03-16T17:36:33.294Z,11.78
2019-03-16T17:39:04.865Z,11.76
2019-03-16T17:41:35.936Z,11.74
2019-03-16T17:44:06.483Z,11.74
2019-03-16T17:46:37.025Z,11.73
2019-03-16T17:49:08.011Z,11.69
2019-03-16T17:51:38.562Z,11.72
2019-03-16T17:54:09.100Z,11.69
2019-03-16T17:56:39.622Z,11.68
2019-03-16T17:59:14.343Z,11.70
2019-03-16T18:01:54.215Z,11.70
2019-03-16T18:04:17.413Z,11.64
2019-03-16T18:06:47.984Z,11.64
2019-03-16T18:09:18.522Z,11.65
2019-03-16T18:11:49.029Z,11.63
2019-03-16T18:14:19.535Z,11.60
2019-03-16T18:16:50.127Z,11.60
2019-03-16T18:19:20.677Z,11.65
2019-03-16T18:21:51.193Z,11.63
2019-03-16T18:24:21.745Z,11.62
2019-03-16T18:26:52.380Z,11.62
2019-03-16T18:29:22.896Z,11.56
2019-03-16T18:31:53.709Z,11.56
2019-03-16T18:34:24.223Z,11.60
2019-03-16T18:36:56.298Z,11.57
2019-03-16T18:39:26.767Z,11.58
2019-03-16T18:41:57.216Z,11.58
2019-03-16T18:44:27.709Z,11.60
2019-03-16T18:46:58.273Z,11.62
2019-03-16T18:49:28.727Z,11.60
2019-03-16T18:51:59.233Z,11.63
2019-03-16T18:54:29.739Z,11.60
2019-03-16T18:57:00.464Z,11.60
2019-03-16T18:59:30.863Z,11.62
2019-03-16T19:02:01.612Z,11.59
2019-03-16T19:04:32.359Z,11.60
2019-03-16T19:07:03.360Z,11.58
2019-03-16T19:09:34.449Z,11.59
2019-03-16T19:12:05.216Z,11.57
2019-03-16T19:14:35.692Z,11.62
2019-03-16T19:17:06.483Z,11.59
2019-03-16T19:19:36.987Z,11.58
2019-03-16T19:22:07.527Z,11.64
2019-03-16T19:24:38.309Z,11.60
2019-03-16T19:27:08.826Z,11.60
2019-03-16T19:29:39.280Z,11.60
2019-03-16T19:32:10.077Z,11.61
2019-03-16T19:34:40.604Z,11.60
2019-03-16T19:37:11.449Z,11.59
2019-03-16T19:39:41.995Z,11.54
2019-03-16T19:42:12.496Z,11.56
2019-03-16T19:44:42.992Z,11.50
2019-03-16T19:47:13.517Z,11.50
2019-03-16T19:49:43.972Z,11.49
2019-03-16T19:52:14.450Z,11.46
2019-03-16T19:54:44.986Z,11.45
2019-03-16T19:57:16.482Z,11.42
2019-03-16T19:59:47.295Z,11.38
2019-03-16T20:02:18.115Z,11.42
2019-03-16T20:04:48.570Z,11.40
2019-03-16T20:07:20.006Z,11.31
2019-03-16T20:09:51.533Z,11.31
2019-03-16T20:12:22.046Z,11.32
2019-03-16T20:14:52.985Z,11.29
2019-03-16T20:17:23.936Z,11.35
2019-03-16T20:19:54.612Z,11.33
2019-03-16T20:22:25.144Z,11.34
2019-03-16T20:24:55.716Z,11.29
2019-03-16T20:27:26.282Z,11.27
2019-03-16T20:29:57.109Z,11.28
2019-03-16T20:32:27.787Z,11.37
2019-03-16T20:35:01.571Z,11.31
2019-03-16T20:37:32.194Z,11.22
2019-03-16T20:40:02.722Z,11.22
2019-03-16T20:42:33.665Z,11.27
2019-03-16T20:45:04.234Z,11.20
2019-03-16T20:47:34.752Z,11.20
2019-03-16T20:50:06.358Z,11.18
2019-03-16T20:52:37.356Z,11.20
2019-03-16T20:55:08.130Z,11.14
2019-03-16T20:57:38.619Z,11.13
2019-03-16T21:00:10.690Z,11.17
2019-03-16T21:02:41.188Z,11.15
2019-03-16T21:05:12.071Z,11.10
2019-03-16T21:07:45.975Z,11.11
2019-03-16T21:10:16.422Z,11.12
2019-03-16T21:12:47.172Z,11.10
2019-03-16T21:15:17.938Z,11.10
2019-03-16T21:17:49.276Z,11.07
2019-03-16T21:20:19.886Z,11.10
2019-03-16T21:22:50.479Z,11.06
2019-03-16T21:25:21.388Z,11.05
2019-03-16T21:27:51.951Z,11.09
2019-03-16T21:30:22.449Z,11.08
2019-03-16T21:32:53.260Z,11.10
2019-03-16T21:35:24.241Z,11.12
2019-03-16T21:37:55.308Z,11.11
2019-03-16T21:40:25.825Z,11.15
2019-03-16T21:42:56.435Z,11.16
2019-03-16T21:45:27.426Z,11.13
2019-03-16T21:48:00.185Z,11.13
2019-03-16T21:50:30.242Z,11.19
2019-03-16T21:53:00.766Z,11.22
2019-03-16T21:55:32.059Z,11.28
2019-03-16T21:58:02.864Z,11.24
2019-03-16T22:00:33.386Z,11.26
2019-03-16T22:03:03.963Z,11.26
2019-03-16T22:05:34.826Z,11.26
2019-03-16T22:08:05.552Z,11.26
2019-03-16T22:10:36.417Z,11.26
2019-03-16T22:13:06.928Z,11.31
2019-03-16T22:15:38.422Z,11.37
2019-03-16T22:18:09.001Z,11.38
2019-03-16T22:20:39.611Z,11.38
2019-03-16T22:23:10.144Z,11.38
2019-03-16T22:25:40.639Z,11.43
2019-03-16T22:28:11.280Z,11.49
2019-03-16T22:30:42.174Z,11.43
2019-03-16T22:33:12.751Z,11.47
2019-03-16T22:35:43.340Z,11.52
2019-03-16T22:38:14.517Z,11.50
2019-03-16T22:40:45.364Z,11.52
2019-03-16T22:43:16.261Z,11.48
2019-03-16T22:45:46.839Z,11.59
2019-03-16T22:48:17.331Z,11.64
2019-03-16T22:50:48.185Z,11.67
2019-03-16T22:53:18.709Z,11.72
2019-03-16T22:55:49.359Z,11.74
2019-03-16T22:58:20.046Z,11.83
2019-03-16T23:00:53.291Z,11.83
2019-03-16T23:03:23.922Z,11.87
2019-03-16T23:05:54.305Z,11.86
2019-03-16T23:08:25.555Z,11.85
2019-03-16T23:10:56.079Z,11.83
2019-03-16T23:13:26.807Z,11.82
2019-03-16T23:15:57.311Z,11.89
2019-03-16T23:18:28.071Z,11.90
2019-03-16T23:20:58.628Z,11.94
2019-03-16T23:23:29.428Z,11.93
2019-03-16T23:25:59.894Z,11.90
2019-03-16T23:28:30.411Z,11.94
2019-03-16T23:31:00.954Z,11.91
2019-03-16T23:33:31.472Z,11.97
2019-03-16T23:36:02.647Z,11.94
2019-03-16T23:38:33.240Z,11.97
2019-03-16T23:43:32.200Z,11.98
2019-03-16T23:46:02.783Z,11.98
2019-03-16T23:48:33.269Z,11.98
2019-03-16T23:51:03.758Z,11.98
2019-03-16T23:53:34.533Z,11.99
2019-03-16T23:56:05.076Z,11.95
2019-03-16T23:58:35.508Z,11.95
